createdAt,value
2023-05-10T00:01:35.571Z,89.94
2023-05-10T00:04:02.951Z,90.12
2023-05-10T00:06:30.006Z,90.31
2023-05-10T00:08:57.018Z,90.17
2023-05-10T00:11:24.054Z,90.04
2023-05-10T00:13:51.040Z,90.05
2023-05-10T00:16:18.079Z,89.90
2023-05-10T00:18:45.107Z,90.22
2023-05-10T00:21:12.106Z,90.21
2023-05-10T00:23:39.234Z,90.13
2023-05-10T00:26:06.855Z,89.91
2023-05-10T00:28:34.138Z,90.19
2023-05-10T00:31:01.155Z,90.33
2023-05-10T00:33:28.211Z,90.12
2023-05-10T00:35:55.239Z,90.01
2023-05-10T00:38:22.309Z,89.99
2023-05-10T00:40:49.361Z,89.98
2023-05-10T00:43:16.364Z,89.93
2023-05-10T00:45:43.411Z,90.05
2023-05-10T00:48:10.488Z,90.07
2023-05-10T00:50:37.540Z,89.85
2023-05-10T00:53:04.627Z,90.09
2023-05-10T00:55:31.716Z,89.68
2023-05-10T00:57:58.843Z,89.81
2023-05-10T01:00:26.914Z,89.67
2023-05-10T01:02:55.000Z,89.65
2023-05-10T01:05:22.221Z,89.72
2023-05-10T01:07:49.442Z,90.00
2023-05-10T01:10:16.814Z,89.80
2023-05-10T01:12:44.944Z,89.91
2023-05-10T01:15:12.152Z,89.82
2023-05-10T01:17:39.812Z,89.68
2023-05-10T01:20:09.304Z,89.61
2023-05-10T01:23:16.763Z,89.97
2023-05-10T01:26:07.635Z,90.15
2023-05-10T01:29:15.824Z,89.81
2023-05-10T01:32:22.032Z,89.77
2023-05-10T01:34:55.885Z,89.64
2023-05-10T01:37:39.558Z,89.68
2023-05-10T01:40:15.064Z,89.81
2023-05-10T01:42:53.626Z,89.81
2023-05-10T01:45:30.668Z,89.88
2023-05-10T01:48:04.899Z,89.97
2023-05-10T01:50:32.041Z,89.64
2023-05-10T01:52:59.997Z,89.71
2023-05-10T01:55:29.957Z,90.13
2023-05-10T01:58:09.145Z,89.87
2023-05-10T02:00:36.747Z,90.01
2023-05-10T02:03:07.662Z,89.96
2023-05-10T02:05:34.866Z,90.14
2023-05-10T02:08:02.677Z,90.23
2023-05-10T02:10:30.254Z,90.16
2023-05-10T02:12:57.518Z,90.05
2023-05-10T02:15:24.959Z,90.08
2023-05-10T02:17:52.056Z,90.34
2023-05-10T02:20:19.568Z,90.36
2023-05-10T02:22:46.660Z,90.05
2023-05-10T02:25:13.648Z,90.08
2023-05-10T02:27:40.711Z,90.41
2023-05-10T02:30:08.614Z,90.19
2023-05-10T02:32:35.743Z,90.16
2023-05-10T02:35:04.107Z,90.33
2023-05-10T02:37:31.077Z,90.38
2023-05-10T02:39:58.305Z,90.45
2023-05-10T02:42:28.954Z,90.35
2023-05-10T02:45:00.748Z,90.51
2023-05-10T02:47:28.531Z,90.36
2023-05-10T02:49:55.810Z,90.40
2023-05-10T02:52:27.552Z,90.06
2023-05-10T02:54:56.638Z,90.27
2023-05-10T02:57:26.495Z,90.54
2023-05-10T02:59:53.492Z,90.40
2023-05-10T03:02:21.500Z,90.58
2023-05-10T03:04:48.584Z,90.69
2023-05-10T03:07:15.654Z,90.70
2023-05-10T03:09:42.671Z,90.46
2023-05-10T03:12:15.709Z,90.65
2023-05-10T03:15:14.836Z,90.46
2023-05-10T03:17:53.914Z,90.74
2023-05-10T03:20:52.626Z,90.59
2023-05-10T03:23:19.529Z,90.71
2023-05-10T03:25:48.079Z,90.86
2023-05-10T03:28:15.528Z,90.74
2023-05-10T03:30:43.053Z,90.49
2023-05-10T03:33:10.126Z,90.96
2023-05-10T03:35:37.204Z,90.90
2023-05-10T03:38:04.244Z,90.95
2023-05-10T03:40:33.022Z,90.78
2023-05-10T03:43:00.410Z,90.97
2023-05-10T05:04:16.276Z,90.24
2023-05-10T05:06:43.281Z,90.79
2023-05-10T05:09:11.489Z,90.14
2023-05-10T05:11:38.821Z,90.45
2023-05-10T05:14:05.824Z,90.34
2023-05-10T05:16:33.783Z,90.08
2023-05-10T05:19:01.823Z,90.45
2023-05-10T05:21:29.466Z,90.14
2023-05-10T05:23:56.582Z,90.42
2023-05-10T05:26:23.590Z,90.43
2023-05-10T05:28:53.740Z,89.92
2023-05-10T05:31:20.897Z,90.11
2023-05-10T05:33:48.084Z,89.98
2023-05-10T05:36:15.093Z,90.26
2023-05-10T05:38:42.124Z,90.03
2023-05-10T05:41:09.116Z,90.26
2023-05-10T05:43:38.222Z,90.11
2023-05-10T05:46:05.723Z,90.04
2023-05-10T05:48:32.859Z,90.04
2023-05-10T05:51:00.108Z,90.31
2023-05-10T05:53:27.304Z,90.36
2023-05-10T05:55:59.748Z,90.13
2023-05-10T05:58:27.162Z,90.27
2023-05-10T06:00:54.270Z,90.12
2023-05-10T06:03:21.902Z,90.16
2023-05-10T06:05:49.066Z,90.26
2023-05-10T06:08:16.313Z,90.34
2023-05-10T06:10:43.534Z,90.31
2023-05-10T06:13:11.069Z,90.11
2023-05-10T06:15:38.177Z,90.27
2023-05-10T06:18:05.578Z,90.26
2023-05-10T06:20:32.756Z,90.09
2023-05-10T06:22:59.904Z,90.35
2023-05-10T06:25:26.952Z,90.14
2023-05-10T06:27:58.454Z,90.46
2023-05-10T06:30:29.659Z,90.45
2023-05-10T06:32:57.453Z,90.25
2023-05-10T06:35:24.649Z,90.26
2023-05-10T06:37:52.152Z,90.42
2023-05-10T06:40:19.467Z,90.12
2023-05-10T06:42:47.074Z,89.77
2023-05-10T06:45:15.879Z,90.13
2023-05-10T06:47:43.339Z,90.00
2023-05-10T06:50:11.056Z,89.76
2023-05-10T06:52:38.277Z,89.94
2023-05-10T06:55:06.243Z,90.06
2023-05-10T06:57:33.732Z,90.19
2023-05-10T07:00:00.943Z,90.06
2023-05-10T07:02:28.148Z,89.97
2023-05-10T07:04:55.353Z,89.99
2023-05-10T07:07:22.517Z,90.20
2023-05-10T07:09:50.998Z,89.78
2023-05-10T07:12:18.238Z,89.87
2023-05-10T07:14:45.355Z,89.42
2023-05-10T07:17:12.512Z,89.42
2023-05-10T07:19:39.565Z,89.32
2023-05-10T07:22:06.738Z,89.32
2023-05-10T07:24:34.294Z,89.34
2023-05-10T07:27:01.375Z,89.14
2023-05-10T07:29:28.365Z,89.26
2023-05-10T07:31:57.862Z,89.45
2023-05-10T07:34:26.238Z,89.38
2023-05-10T07:36:53.763Z,89.38
2023-05-10T07:39:27.814Z,89.31
2023-05-10T07:41:55.949Z,89.31
2023-05-10T07:44:23.256Z,88.99
2023-05-10T07:46:50.336Z,88.91
2023-05-10T07:49:17.721Z,88.89
2023-05-10T07:51:44.828Z,89.00
2023-05-10T07:54:11.939Z,89.13
2023-05-10T07:56:39.130Z,89.03
2023-05-10T07:59:09.250Z,88.46
2023-05-10T08:01:37.793Z,88.51
2023-05-10T08:04:05.560Z,88.62
2023-05-10T08:06:32.704Z,88.46
2023-05-10T08:08:59.739Z,88.03
2023-05-10T08:11:28.759Z,88.11
2023-05-10T08:13:55.963Z,87.80
2023-05-10T08:16:23.282Z,87.57
2023-05-10T08:18:51.962Z,87.79
2023-05-10T08:21:19.139Z,87.38
2023-05-10T08:23:46.216Z,87.60
2023-05-10T08:26:13.294Z,87.80
2023-05-10T08:28:40.320Z,87.55
2023-05-10T08:31:07.441Z,87.51
2023-05-10T08:33:35.170Z,87.03
2023-05-10T08:36:02.186Z,86.93
2023-05-10T08:38:29.201Z,86.85
2023-05-10T08:41:00.120Z,87.17
2023-05-10T08:43:29.248Z,87.10
2023-05-10T08:45:57.618Z,87.42
2023-05-10T08:48:25.791Z,87.13
2023-05-10T08:50:55.639Z,87.12
2023-05-10T08:53:22.700Z,86.93
2023-05-10T08:55:49.796Z,87.03
2023-05-10T08:58:16.930Z,87.11
2023-05-10T09:00:44.217Z,86.68
2023-05-10T09:03:11.451Z,86.87
2023-05-10T09:05:38.499Z,86.83
2023-05-10T09:08:06.523Z,87.04
2023-05-10T09:10:34.023Z,86.89
2023-05-10T09:13:01.047Z,86.74
2023-05-10T09:15:28.218Z,86.89
2023-05-10T09:17:58.231Z,86.79
2023-05-10T09:20:25.817Z,86.90
2023-05-10T09:22:53.160Z,86.83
2023-05-10T09:25:20.650Z,86.77
2023-05-10T09:27:48.427Z,86.61
2023-05-10T09:30:19.227Z,86.21
2023-05-10T09:32:48.327Z,85.62
2023-05-10T09:35:17.653Z,85.61
2023-05-10T09:37:48.971Z,85.56
2023-05-10T09:40:20.289Z,85.13
2023-05-10T09:42:57.462Z,85.07
2023-05-10T09:45:25.616Z,85.19
2023-05-10T09:47:52.935Z,84.87
2023-05-10T09:50:21.563Z,84.93
2023-05-10T09:53:01.533Z,84.45
2023-05-10T09:55:41.580Z,84.55
2023-05-10T09:58:11.822Z,84.15
2023-05-10T10:00:43.112Z,84.12
2023-05-10T10:03:18.011Z,84.14
2023-05-10T10:05:45.778Z,83.48
2023-05-10T10:08:13.588Z,83.67
2023-05-10T10:10:47.220Z,83.29
2023-05-10T10:13:14.714Z,83.14
2023-05-10T10:15:41.770Z,83.28
2023-05-10T10:18:09.077Z,83.52
2023-05-10T10:20:36.924Z,83.33
2023-05-10T10:23:04.012Z,83.21
2023-05-10T10:25:31.036Z,83.34
2023-05-10T10:28:05.646Z,83.04
2023-05-10T10:30:45.297Z,83.27
2023-05-10T10:33:31.046Z,83.49
2023-05-10T10:36:00.249Z,83.25
2023-05-10T10:39:00.428Z,82.74
2023-05-10T10:41:34.669Z,83.17
2023-05-10T10:44:37.737Z,82.56
2023-05-10T10:47:24.472Z,82.46
2023-05-10T10:50:05.227Z,82.66
2023-05-10T10:52:36.617Z,82.99
2023-05-10T10:55:13.742Z,82.55
2023-05-10T10:58:02.139Z,82.01
2023-05-10T11:00:29.982Z,82.10
2023-05-10T11:03:08.310Z,82.04
2023-05-10T11:05:38.417Z,82.31
2023-05-10T11:08:13.648Z,81.53
2023-05-10T11:10:41.660Z,82.00
2023-05-10T11:13:11.838Z,81.74
2023-05-10T11:15:42.311Z,81.06
2023-05-10T11:18:25.537Z,81.26
2023-05-10T11:21:10.458Z,81.08
2023-05-10T11:23:53.004Z,81.08
2023-05-10T11:26:20.393Z,80.95
2023-05-10T11:28:49.719Z,81.24
2023-05-10T11:31:18.617Z,80.42
2023-05-10T11:33:49.634Z,80.28
2023-05-10T11:36:29.896Z,80.06
2023-05-10T11:38:57.854Z,80.16
2023-05-10T11:41:26.045Z,79.40
2023-05-10T11:43:54.825Z,79.30
2023-05-10T11:46:25.815Z,79.37
2023-05-10T11:48:59.518Z,79.33
2023-05-10T11:51:26.991Z,79.25
2023-05-10T11:53:56.150Z,79.11
2023-05-10T11:56:24.685Z,79.00
2023-05-10T11:58:57.839Z,78.79
2023-05-10T12:01:27.327Z,78.93
2023-05-10T12:03:59.842Z,78.35
2023-05-10T12:06:33.697Z,78.26
2023-05-10T12:09:04.948Z,78.29
2023-05-10T12:11:32.060Z,78.38
2023-05-10T12:13:59.408Z,78.27
2023-05-10T12:16:33.193Z,78.24
2023-05-10T12:19:01.811Z,78.45
2023-05-10T12:21:32.468Z,78.23
2023-05-10T12:24:06.230Z,78.29
2023-05-10T12:26:33.986Z,78.30
2023-05-10T12:29:19.173Z,77.96
2023-05-10T12:31:56.277Z,78.30
2023-05-10T12:34:36.202Z,78.00
2023-05-10T12:37:06.444Z,77.85
2023-05-10T12:39:45.321Z,77.61
2023-05-10T12:42:12.776Z,77.54
2023-05-10T12:44:40.990Z,77.47
2023-05-10T12:47:08.258Z,76.89
2023-05-10T12:49:35.579Z,76.71
2023-05-10T12:52:02.827Z,76.77
2023-05-10T12:54:29.925Z,76.48
2023-05-10T12:56:57.060Z,77.29
2023-05-10T12:59:24.209Z,76.33
2023-05-10T13:01:51.304Z,76.47
2023-05-10T13:04:18.502Z,76.43
2023-05-10T13:06:45.672Z,76.12
2023-05-10T13:09:12.797Z,76.24
2023-05-10T13:11:39.917Z,76.88
2023-05-10T13:14:07.018Z,76.52
2023-05-10T13:16:34.581Z,75.78
2023-05-10T13:19:01.842Z,75.65
2023-05-10T13:21:29.160Z,75.85
2023-05-10T13:23:56.719Z,75.33
2023-05-10T13:26:23.831Z,75.58
2023-05-10T13:28:52.882Z,75.09
2023-05-10T13:31:20.129Z,75.09
2023-05-10T13:33:47.288Z,74.83
2023-05-10T13:36:14.380Z,74.26
2023-05-10T13:38:41.737Z,74.00
2023-05-10T13:41:08.966Z,73.56
2023-05-10T13:43:37.188Z,73.70
2023-05-10T13:46:04.518Z,73.96
2023-05-10T13:48:31.624Z,73.76
2023-05-10T13:50:58.710Z,73.88
2023-05-10T13:53:25.777Z,73.14
2023-05-10T13:55:52.920Z,73.16
2023-05-10T13:58:20.404Z,73.04
2023-05-10T14:00:47.578Z,72.97
2023-05-10T14:03:14.725Z,73.23
2023-05-10T14:05:42.101Z,72.86
2023-05-10T14:08:10.562Z,72.78
2023-05-10T14:10:38.094Z,72.64
2023-05-10T14:13:05.517Z,72.44
2023-05-10T14:15:32.697Z,72.24
2023-05-10T14:17:59.814Z,71.94
2023-05-10T14:20:27.510Z,71.77
2023-05-10T14:22:54.671Z,71.93
2023-05-10T14:25:21.952Z,72.11
2023-05-10T14:27:49.124Z,71.80
2023-05-10T14:30:16.650Z,71.43
2023-05-10T14:32:44.021Z,70.77
2023-05-10T14:35:12.939Z,71.00
2023-05-10T14:37:40.809Z,70.94
2023-05-10T14:40:08.858Z,70.46
2023-05-10T14:42:36.154Z,70.92
2023-05-10T14:45:03.838Z,70.89
2023-05-10T14:47:31.417Z,70.67
2023-05-10T14:49:59.378Z,70.87
2023-05-10T14:52:26.984Z,70.91
2023-05-10T14:54:54.617Z,70.98
2023-05-10T14:57:21.706Z,70.97
2023-05-10T14:59:49.232Z,71.65
2023-05-10T15:02:17.419Z,71.25
2023-05-10T15:04:44.927Z,71.82
2023-05-10T15:07:15.485Z,71.61
2023-05-10T15:09:42.683Z,71.68
2023-05-10T15:12:09.797Z,71.74
2023-05-10T15:14:37.557Z,71.60
2023-05-10T15:17:07.556Z,71.28
2023-05-10T15:19:35.244Z,71.43
2023-05-10T15:22:02.362Z,71.63
2023-05-10T15:24:29.999Z,70.72
2023-05-10T15:26:57.096Z,70.57
2023-05-10T15:29:24.278Z,71.05
2023-05-10T15:31:52.698Z,70.90
2023-05-10T15:34:20.164Z,71.35
2023-05-10T15:36:47.334Z,71.10
2023-05-10T15:39:14.473Z,71.68
2023-05-10T15:41:41.651Z,71.89
2023-05-10T15:44:08.721Z,71.57
2023-05-10T15:46:36.153Z,71.37
2023-05-10T15:49:03.972Z,71.68
2023-05-10T15:51:31.084Z,71.65
2023-05-10T15:54:07.202Z,71.09
2023-05-10T15:56:35.408Z,71.47
2023-05-10T15:59:02.616Z,71.39
2023-05-10T16:01:31.156Z,72.07
2023-05-10T16:03:58.352Z,72.10
2023-05-10T16:06:25.435Z,72.58
2023-05-10T16:08:54.141Z,72.32
2023-05-10T16:11:22.126Z,72.50
2023-05-10T16:13:49.221Z,72.42
2023-05-10T16:16:16.531Z,72.63
2023-05-10T16:18:43.843Z,72.38
2023-05-10T16:21:11.106Z,72.25
2023-05-10T16:23:38.304Z,72.36
2023-05-10T16:26:05.668Z,72.50
2023-05-10T16:28:32.827Z,72.29
2023-05-10T16:31:00.090Z,73.13
2023-05-10T16:33:27.438Z,73.11
2023-05-10T16:35:54.525Z,73.35
2023-05-10T16:38:22.043Z,73.31
2023-05-10T16:40:49.132Z,73.17
2023-05-10T16:43:16.235Z,73.00
2023-05-10T16:45:43.380Z,73.04
2023-05-10T16:48:10.491Z,73.89
2023-05-10T16:50:37.607Z,73.82
2023-05-10T16:53:05.094Z,73.88
2023-05-10T16:55:32.399Z,73.90
2023-05-10T16:58:01.030Z,73.74
2023-05-10T17:00:28.136Z,74.28
2023-05-10T17:02:55.471Z,74.56
2023-05-10T17:05:23.205Z,74.60
2023-05-10T17:07:50.710Z,74.61
2023-05-10T17:10:17.972Z,74.89
2023-05-10T17:12:45.822Z,74.57
2023-05-10T17:15:13.308Z,74.92
2023-05-10T17:17:40.548Z,74.71
2023-05-10T17:20:08.758Z,75.18
2023-05-10T17:22:36.081Z,75.06
2023-05-10T17:25:03.625Z,74.94
2023-05-10T17:27:30.776Z,75.40
2023-05-10T17:29:58.178Z,75.09
2023-05-10T17:32:26.220Z,74.96
2023-05-10T17:34:53.439Z,75.65
2023-05-10T17:37:20.659Z,75.66
2023-05-10T17:39:47.768Z,75.43
2023-05-10T17:42:17.648Z,75.23
2023-05-10T17:44:44.792Z,74.99
2023-05-10T17:47:11.875Z,75.21
2023-05-10T17:49:40.031Z,75.49
2023-05-10T17:52:07.614Z,75.16
2023-05-10T17:54:35.342Z,74.96
2023-05-10T17:57:04.036Z,74.80
2023-05-10T17:59:31.169Z,74.93
2023-05-10T18:01:58.246Z,75.19
2023-05-10T18:04:26.175Z,74.85
2023-05-10T18:07:01.234Z,74.79
2023-05-10T18:09:28.967Z,74.96
2023-05-10T18:11:56.138Z,74.99
2023-05-10T18:14:39.175Z,75.01
2023-05-10T18:17:08.329Z,74.94
2023-05-10T18:19:35.681Z,75.11
2023-05-10T18:22:02.839Z,75.20
2023-05-10T18:24:39.018Z,74.79
2023-05-10T18:27:08.907Z,75.14
2023-05-10T18:29:36.825Z,74.96
2023-05-10T18:32:04.084Z,75.06
2023-05-10T18:34:31.174Z,74.89
2023-05-10T18:36:58.306Z,75.08
2023-05-10T18:39:25.445Z,75.23
2023-05-10T18:41:52.626Z,75.58
2023-05-10T18:44:19.730Z,75.34
2023-05-10T18:46:47.536Z,75.49
2023-05-10T18:49:15.880Z,75.35
2023-05-10T18:51:43.031Z,75.53
2023-05-10T18:54:10.103Z,75.75
2023-05-10T18:56:37.365Z,75.87
2023-05-10T18:59:07.505Z,75.79
2023-05-10T19:01:35.372Z,76.00
2023-05-10T19:04:02.668Z,76.58
2023-05-10T19:06:29.828Z,76.48
2023-05-10T19:08:56.884Z,76.70
2023-05-10T19:11:24.022Z,76.72
2023-05-10T19:13:51.521Z,76.53
2023-05-10T19:16:18.774Z,77.29
2023-05-10T19:18:46.961Z,77.10
2023-05-10T19:21:21.372Z,76.89
2023-05-10T19:23:49.385Z,77.21
2023-05-10T19:26:16.601Z,77.25
2023-05-10T19:28:44.131Z,77.48
2023-05-10T19:31:11.452Z,77.53
2023-05-10T19:33:38.583Z,77.83
2023-05-10T19:36:05.947Z,77.73
2023-05-10T19:38:33.965Z,77.64
2023-05-10T19:41:01.316Z,77.93
2023-05-10T19:43:33.345Z,78.19
2023-05-10T19:46:01.909Z,78.09
2023-05-10T19:48:29.002Z,78.41
2023-05-10T19:51:01.146Z,78.56
2023-05-10T19:53:28.306Z,78.42
2023-05-10T19:55:56.386Z,78.58
2023-05-10T19:58:23.912Z,78.77
2023-05-10T20:00:50.988Z,78.78
2023-05-10T20:03:17.996Z,78.74
2023-05-10T20:05:45.055Z,79.10
2023-05-10T20:08:12.065Z,78.73
2023-05-10T20:10:39.116Z,79.02
2023-05-10T20:13:06.232Z,79.05
2023-05-10T20:15:34.067Z,79.35
2023-05-10T20:18:01.370Z,79.33
2023-05-10T20:20:28.460Z,79.22
2023-05-10T20:22:55.618Z,79.46
2023-05-10T20:25:22.658Z,79.44
2023-05-10T20:27:51.083Z,79.48
2023-05-10T20:30:18.416Z,79.24
2023-05-10T20:32:45.636Z,79.25
2023-05-10T20:35:12.757Z,79.10
2023-05-10T20:37:39.819Z,78.97
2023-05-10T20:40:07.248Z,78.86
2023-05-10T20:42:34.356Z,78.95
2023-05-10T20:45:01.384Z,79.20
2023-05-10T20:47:28.476Z,79.24
2023-05-10T20:49:55.570Z,79.10
2023-05-10T20:52:25.147Z,78.93
2023-05-10T20:54:52.343Z,78.86
2023-05-10T20:57:20.187Z,79.02
2023-05-10T20:59:47.244Z,79.13
2023-05-10T21:02:14.288Z,79.21
2023-05-10T21:04:41.340Z,79.21
2023-05-10T21:07:08.420Z,79.23
2023-05-10T21:09:36.021Z,79.32
2023-05-10T21:12:04.263Z,79.01
2023-05-10T21:14:31.405Z,79.25
2023-05-10T21:16:58.419Z,79.28
2023-05-10T21:19:25.456Z,79.25
2023-05-10T21:21:52.590Z,79.40
2023-05-10T21:24:19.792Z,79.30
2023-05-10T21:26:47.332Z,79.76
2023-05-10T21:29:14.361Z,79.49
2023-05-10T21:31:41.445Z,79.35
2023-05-10T21:34:08.449Z,79.23
2023-05-10T21:36:35.572Z,79.53
2023-05-10T21:39:03.716Z,79.33
2023-05-10T21:41:30.833Z,79.88
2023-05-10T21:43:57.872Z,80.05
2023-05-10T21:46:25.075Z,80.30
2023-05-10T21:48:52.161Z,79.71
2023-05-10T21:51:19.243Z,80.19
2023-05-10T21:53:46.310Z,80.18
2023-05-10T21:56:13.321Z,80.20
2023-05-10T21:58:40.308Z,80.17
2023-05-10T22:01:07.474Z,80.44
2023-05-10T22:03:37.287Z,80.26
2023-05-10T22:06:08.576Z,80.29
2023-05-10T22:08:38.109Z,80.83
2023-05-10T22:11:05.738Z,80.72
2023-05-10T22:13:32.788Z,80.97
2023-05-10T22:15:59.796Z,80.82
2023-05-10T22:18:26.808Z,80.98
2023-05-10T22:20:53.844Z,81.25
2023-05-10T22:23:20.894Z,80.96
2023-05-10T22:25:47.913Z,81.27
2023-05-10T22:28:14.940Z,81.36
2023-05-10T22:30:43.105Z,81.11
2023-05-10T22:33:10.075Z,81.46
2023-05-10T22:35:37.100Z,81.67
2023-05-10T22:38:04.234Z,81.55
2023-05-10T22:40:31.361Z,81.81
2023-05-10T22:42:58.346Z,81.87
2023-05-10T22:45:25.886Z,81.91
2023-05-10T22:47:53.007Z,81.82
2023-05-10T22:50:20.666Z,82.12
2023-05-10T22:52:47.777Z,82.08
2023-05-10T22:55:14.831Z,81.75
2023-05-10T22:57:41.859Z,81.76
2023-05-10T23:00:09.413Z,82.12
2023-05-10T23:02:36.463Z,81.94
2023-05-10T23:05:04.148Z,82.11
2023-05-10T23:07:31.208Z,81.99
2023-05-10T23:09:58.203Z,82.22
2023-05-10T23:12:25.385Z,82.33
2023-05-10T23:14:52.473Z,82.21
2023-05-10T23:17:19.478Z,82.35
2023-05-10T23:19:46.757Z,82.42
2023-05-10T23:22:13.983Z,82.53
2023-05-10T23:24:41.015Z,82.22
2023-05-10T23:27:08.023Z,82.49
2023-05-10T23:29:38.125Z,82.53
2023-05-10T23:32:05.751Z,82.60
2023-05-10T23:34:32.810Z,82.70
2023-05-10T23:36:59.814Z,82.88
2023-05-10T23:39:26.849Z,83.03
2023-05-10T23:41:53.931Z,83.17
2023-05-10T23:44:20.949Z,82.74
2023-05-10T23:46:47.945Z,83.06
2023-05-10T23:49:14.995Z,83.04
2023-05-10T23:51:42.041Z,83.19
2023-05-10T23:54:09.110Z,83.13
2023-05-10T23:56:36.215Z,83.15
2023-05-10T23:59:05.769Z,82.53
